Time;durP1;ratioP1;P1;durP2;ratioP2;P2;SDS_P1;SDS_P2;PMS_P1;PMS_P2;Temp;Humidity;BMP_temperature;BMP_pressure;BME280_temperature;BME280_humidity;BME280_pressure;Samples;Min_cycle;Max_cycle;Signal;HPM_P1;HPM_P2
2024/01/23 00:02:01;;;;;;;;;;;;;;;6.39;100.00;100800.25;4933712;29;20048;-78
2024/01/23 00:04:27;;;;;;;11.35;2.08;;;;;;;6.34;100.00;100804.66;4929087;29;19953;-77
2024/01/23 00:06:52;;;;;;;15.18;2.40;;;;;;;6.35;100.00;100804.41;4927137;29;20032;-78
2024/01/23 00:09:19;;;;;;;11.63;2.50;;;;;;;6.35;100.00;100811.59;4929748;29;20135;-77
2024/01/23 00:11:45;;;;;;;15.05;2.30;;;;;;;6.41;100.00;100818.63;4927041;29;20115;-78
2024/01/23 00:14:10;;;;;;;15.20;2.80;;;;;;;6.37;100.00;100822.78;4926964;29;20047;-78
2024/01/23 00:16:36;;;;;;;21.60;2.40;;;;;;;6.33;100.00;100811.84;4906785;29;20043;-79
2024/01/23 00:19:03;;;;;;;11.32;2.30;;;;;;;6.34;100.00;100820.63;4928364;29;20035;-79
2024/01/23 00:21:29;;;;;;;;;;;;;;;6.36;100.00;100815.88;4919369;29;20087;-78
2024/01/23 00:23:56;;;;;;;14.52;2.70;;;;;;;6.42;100.00;100817.56;4909483;29;19923;-79
2024/01/23 00:26:22;;;;;;;10.32;1.73;;;;;;;6.42;100.00;100817.56;4911827;29;20051;-80
2024/01/23 00:28:50;;;;;;;13.95;2.42;;;;;;;6.42;100.00;100818.38;4928594;29;20059;-79
2024/01/23 00:31:16;;;;;;;14.50;2.45;;;;;;;6.43;100.00;100811.19;4924003;29;20675;-77
2024/01/23 00:33:42;;;;;;;19.58;2.53;;;;;;;6.42;100.00;100817.56;4929898;29;20477;-77
2024/01/23 00:36:08;;;;;;;14.32;2.78;;;;;;;6.42;100.00;100806.94;4932729;29;20043;-78
2024/01/23 00:38:33;;;;;;;14.52;3.00;;;;;;;6.42;100.00;100804.28;4905739;29;20069;-79
2024/01/23 00:40:59;;;;;;;10.48;2.67;;;;;;;6.41;100.00;100823.94;4910441;29;20110;-75
2024/01/23 00:43:26;;;;;;;11.77;2.65;;;;;;;6.41;100.00;100823.94;4913885;29;20036;-79
2024/01/23 00:45:51;;;;;;;13.77;2.95;;;;;;;6.45;100.00;100825.09;4913745;29;20066;-79
2024/01/23 00:48:17;;;;;;;13.77;2.50;;;;;;;6.48;100.00;100829.91;4930095;28;20031;-79
2024/01/23 00:50:43;;;;;;;12.10;2.65;;;;;;;6.46;100.00;100826.69;4924443;29;20123;-78
2024/01/23 00:53:09;;;;;;;16.25;2.45;;;;;;;6.45;100.00;100835.72;4930087;29;20059;-76
2024/01/23 00:55:34;;;;;;;11.25;2.30;;;;;;;6.41;100.00;100827.41;4929188;29;20046;-79
2024/01/23 00:58:00;;;;;;;11.60;2.83;;;;;;;6.42;100.00;100831.69;4928298;29;20158;-77
2024/01/23 01:00:26;;;;;;;14.40;2.60;;;;;;;6.42;100.00;100833.53;4921898;29;20070;-79
2024/01/23 01:02:51;;;;;;;11.15;2.13;;;;;;;6.40;100.00;100830.31;4927663;29;20024;-75
2024/01/23 01:05:17;;;;;;;13.55;2.00;;;;;;;6.41;100.00;100822.09;4910861;29;20031;-80
2024/01/23 01:07:44;;;;;;;12.68;2.05;;;;;;;6.40;100.00;100839.09;4914760;29;20035;-78
2024/01/23 01:10:10;;;;;;;15.77;2.42;;;;;;;6.37;100.00;100865.34;4900280;29;20047;-79
2024/01/23 01:12:36;;;;;;;8.35;1.95;;;;;;;6.26;100.00;100886.47;4927998;29;20024;-82
2024/01/23 01:15:03;;;;;;;14.57;1.95;;;;;;;5.96;100.00;100961.13;4911938;29;20050;-85
2024/01/23 01:17:32;;;;;;;5.07;1.45;;;;;;;5.47;100.00;100909.22;4924150;29;20082;-82
2024/01/23 01:19:58;;;;;;;6.90;1.48;;;;;;;5.21;100.00;100910.47;4919824;29;20453;-81
2024/01/23 01:22:24;;;;;;;;;;;;;;;4.99;100.00;100899.63;4931372;29;20240;-82
2024/01/23 01:24:50;;;;;;;7.05;1.33;;;;;;;4.91;100.00;100894.66;4928880;29;19915;-80
2024/01/23 01:27:17;;;;;;;10.57;1.38;;;;;;;4.85;100.00;100893.72;4927533;29;20599;-80
2024/01/23 01:29:42;;;;;;;7.45;1.30;;;;;;;4.82;100.00;100910.09;4922300;29;20052;-79
2024/01/23 01:32:08;;;;;;;13.80;1.90;;;;;;;4.80;100.00;100925.41;4907671;29;20072;-80
2024/01/23 01:34:34;;;;;;;11.07;1.65;;;;;;;4.78;100.00;100919.53;4920116;29;20048;-80
2024/01/23 01:36:59;;;;;;;8.20;1.63;;;;;;;4.75;100.00;100911.22;4931845;29;20131;-78
2024/01/23 01:39:25;;;;;;;10.13;1.67;;;;;;;4.74;100.00;100914.91;4909380;29;20126;-79
2024/01/23 01:41:52;;;;;;;7.53;1.65;;;;;;;4.70;100.00;100919.06;4930376;29;20039;-79
2024/01/23 01:44:17;;;;;;;;;;;;;;;4.66;100.00;100927.44;4929838;29;20143;-80
2024/01/23 01:46:44;;;;;;;12.20;1.75;;;;;;;4.68;100.00;100934.41;4922095;29;19919;-78
2024/01/23 01:49:11;;;;;;;8.32;1.90;;;;;;;4.63;100.00;100943.84;4922993;29;20090;-79
2024/01/23 01:51:37;;;;;;;;;;;;;;;4.65;100.00;100954.22;4930373;29;20070;-78
2024/01/23 01:54:04;;;;;;;8.15;2.17;;;;;;;4.65;100.00;100943.59;4909492;29;20018;-76
2024/01/23 01:56:56;;;;;;;11.10;1.75;;;;;;;4.68;100.00;100960.94;4912667;28;20063;-78
2024/01/23 01:59:21;;;;;;;12.07;1.85;;;;;;;4.66;100.00;100956.63;4953433;28;20505;-76
2024/01/23 02:01:47;;;;;;;8.18;1.63;;;;;;;4.72;100.00;100960.22;4939745;28;20031;-76
2024/01/23 02:04:14;;;;;;;;;;;;;;;4.72;100.00;100967.38;4926239;28;20031;-72
2024/01/23 02:06:40;;;;;;;10.75;1.52;;;;;;;4.71;100.00;100973.72;4954254;28;19945;-76
2024/01/23 02:09:06;;;;;;;12.52;1.85;;;;;;;4.75;100.00;100980.22;4918447;28;20734;-73
2024/01/23 02:11:33;;;;;;;10.32;1.90;;;;;;;4.77;100.00;100978.16;4928669;29;20039;-74
2024/01/23 02:13:59;;;;;;;13.20;3.22;;;;;;;4.80;100.00;100981.13;4920735;28;20106;-73
2024/01/23 02:16:25;;;;;;;9.75;1.80;;;;;;;4.86;100.00;100984.75;4937921;28;20071;-73
2024/01/23 02:18:51;;;;;;;9.63;2.00;;;;;;;4.84;100.00;100987.63;4928560;29;20428;-75
2024/01/23 02:21:16;;;;;;;13.32;1.98;;;;;;;4.84;100.00;100984.97;4941506;28;20421;-75
2024/01/23 02:23:42;;;;;;;9.93;1.67;;;;;;;4.86;100.00;100987.41;4940877;28;20042;-76
2024/01/23 02:26:07;;;;;;;10.85;2.35;;;;;;;4.84;100.00;100987.63;4932223;28;20110;-74
2024/01/23 02:28:33;;;;;;;8.52;1.70;;;;;;;4.85;100.00;100983.94;4941012;28;20050;-76
2024/01/23 02:30:59;;;;;;;10.07;2.05;;;;;;;4.84;100.00;100979.66;4941907;28;20047;-75
2024/01/23 02:33:25;;;;;;;9.70;1.80;;;;;;;4.88;100.00;100980.03;4928498;29;20023;-78
2024/01/23 02:35:51;;;;;;;10.55;1.90;;;;;;;4.87;100.00;100976.53;4941631;28;20159;-77
2024/01/23 02:38:16;;;;;;;8.30;1.92;;;;;;;4.88;100.00;100980.03;4943676;28;20047;-76
2024/01/23 02:40:42;;;;;;;9.68;1.88;;;;;;;4.86;100.00;100976.78;4945105;28;20081;-76
2024/01/23 02:43:08;;;;;;;9.27;2.15;;;;;;;4.87;100.00;100994.31;4931936;29;20482;-75
2024/01/23 02:45:34;;;;;;;13.48;1.77;;;;;;;4.84;100.00;100987.63;4934782;29;20562;-77
2024/01/23 02:48:00;;;;;;;9.95;1.92;;;;;;;4.80;100.00;100993.59;4941830;28;20040;-76
2024/01/23 02:50:27;;;;;;;11.45;1.92;;;;;;;4.85;100.00;100996.41;4939980;28;20035;-77
2024/01/23 02:52:52;;;;;;;11.45;2.10;;;;;;;4.84;100.00;100994.78;4951339;28;20070;-76
2024/01/23 02:55:18;;;;;;;11.98;2.00;;;;;;;4.82;100.00;100999.50;4942817;28;20043;-75
2024/01/23 02:57:47;;;;;;;12.38;1.50;;;;;;;4.85;100.00;100996.41;4944883;28;20036;-76
2024/01/23 03:00:13;;;;;;;12.18;2.38;;;;;;;4.82;100.00;100986.25;4943896;28;20069;-76
2024/01/23 03:02:39;;;;;;;17.45;2.45;;;;;;;4.80;100.00;100982.97;4944507;28;20035;-76
2024/01/23 03:05:05;;;;;;;14.63;2.58;;;;;;;4.81;100.00;101000.53;4939320;28;20412;-77
2024/01/23 03:07:30;;;;;;;11.60;2.03;;;;;;;4.78;100.00;101001.78;4939380;28;20035;-76
2024/01/23 03:09:56;;;;;;;9.55;1.80;;;;;;;4.79;100.00;101005.25;4945259;28;20452;-76
2024/01/23 03:12:23;;;;;;;13.60;1.85;;;;;;;4.83;100.00;100998.47;4933039;28;20428;-76
2024/01/23 03:14:50;;;;;;;13.48;2.30;;;;;;;4.87;100.00;101002.28;4927462;28;20047;-76
2024/01/23 03:17:17;;;;;;;8.23;1.98;;;;;;;4.88;100.00;101010.03;4926717;28;20049;-75
2024/01/23 03:19:43;;;;;;;17.33;2.05;;;;;;;4.88;100.00;101001.28;4937863;28;20050;-76
2024/01/23 03:22:09;;;;;;;10.85;2.20;;;;;;;4.90;100.00;101009.81;4941412;28;20039;-76
2024/01/23 03:24:39;;;;;;;13.73;1.50;;;;;;;4.92;100.00;101013.03;4926190;29;20031;-76
2024/01/23 03:27:06;;;;;;;12.68;2.38;;;;;;;4.93;100.00;101028.72;4936105;28;20059;-76
2024/01/23 03:29:51;;;;;;;9.77;2.20;;;;;;;4.96;100.00;101030.13;4944444;28;20038;-76
2024/01/23 03:32:17;;;;;;;14.02;2.05;;;;;;;4.95;100.00;101027.72;4945452;28;20138;-76
2024/01/23 03:34:43;;;;;;;9.35;2.28;;;;;;;4.99;100.00;101034.19;4926570;29;20040;-76
2024/01/23 03:37:08;;;;;;;13.77;3.20;;;;;;;5.01;100.00;101038.22;4932301;28;20031;-76
2024/01/23 03:39:34;;;;;;;12.57;1.77;;;;;;;5.04;100.00;101042.28;4943901;28;20137;-76
2024/01/23 03:42:02;;;;;;;11.65;1.77;;;;;;;5.05;100.00;101044.72;4941937;28;20047;-77
2024/01/23 03:44:28;;;;;;;15.43;2.05;;;;;;;5.06;100.00;101048.97;4941949;28;20089;-77
2024/01/23 03:46:55;;;;;;;9.95;2.40;;;;;;;5.06;100.00;101050.81;4943763;28;20040;-76
2024/01/23 03:49:25;;;;;;;17.17;2.78;;;;;;;5.06;100.00;101050.81;4938594;28;20077;-75
2024/01/23 03:51:51;;;;;;;14.43;2.20;;;;;;;5.08;100.00;101051.41;4949991;28;20035;-77
2024/01/23 03:54:16;;;;;;;10.48;2.00;;;;;;;5.11;100.00;101065.03;4921998;28;20046;-77
2024/01/23 03:56:43;;;;;;;9.32;1.98;;;;;;;5.10;100.00;101075.91;4938403;28;20050;-76
2024/01/23 03:59:08;;;;;;;15.20;2.42;;;;;;;5.08;100.00;101070.81;4927696;28;20074;-76
2024/01/23 04:01:34;;;;;;;19.17;2.22;;;;;;;5.14;100.00;101091.13;4906766;29;20058;-75
2024/01/23 04:04:00;;;;;;;11.93;2.08;;;;;;;5.18;100.00;101089.66;4923338;29;20162;-75
2024/01/23 04:06:26;;;;;;;;;;;;;;;5.18;100.00;101081.69;4937398;28;20027;-76
2024/01/23 04:08:52;;;;;;;10.50;1.80;;;;;;;5.18;100.00;101094.16;4932829;28;19934;-76
2024/01/23 04:11:17;;;;;;;13.77;2.58;;;;;;;5.20;100.00;101097.41;4897178;29;20095;-76
2024/01/23 04:13:43;;;;;;;13.77;2.42;;;;;;;5.20;100.00;101095.53;4933759;28;20854;-76
2024/01/23 04:16:09;;;;;;;14.60;2.20;;;;;;;5.18;100.00;101110.91;4919680;29;20043;-75
2024/01/23 04:18:35;;;;;;;9.63;1.85;;;;;;;5.18;100.00;101107.44;4936497;28;20085;-76
2024/01/23 04:21:01;;;;;;;13.77;2.03;;;;;;;5.23;100.00;101107.59;4943738;28;20042;-76
2024/01/23 04:23:28;;;;;;;15.68;2.83;;;;;;;5.27;100.00;101115.88;4931817;28;20033;-75
2024/01/23 04:25:53;;;;;;;11.13;1.90;;;;;;;5.28;100.00;101106.88;4933977;28;20043;-77
2024/01/23 04:28:20;;;;;;;16.25;2.83;;;;;;;5.29;100.00;101121.81;4935498;28;20519;-76
2024/01/23 04:30:46;;;;;;;17.58;2.95;;;;;;;5.29;100.00;101124.47;4960010;28;20108;-76
2024/01/23 04:33:12;;;;;;;22.02;3.17;;;;;;;5.33;100.00;101141.56;4919917;28;20075;-74
2024/01/23 04:35:37;;;;;;;13.40;1.73;;;;;;;5.32;100.00;101131.97;4918953;29;20046;-76
2024/01/23 04:38:03;;;;;;;14.48;2.30;;;;;;;5.36;100.00;101128.66;4932975;28;20758;-76
2024/01/23 04:40:29;;;;;;;17.15;2.22;;;;;;;5.36;100.00;101136.63;4951416;28;20045;-73
2024/01/23 04:42:54;;;;;;;20.15;2.78;;;;;;;5.33;100.00;101141.56;4939573;28;20063;-75
2024/01/23 04:45:20;;;;;;;16.52;2.55;;;;;;;5.34;100.00;101141.31;4927694;28;20043;-76
2024/01/23 04:47:46;;;;;;;16.85;2.50;;;;;;;5.39;100.00;101144.13;4932458;28;20505;-75
2024/01/23 04:50:11;;;;;;;17.35;2.45;;;;;;;5.39;100.00;101148.63;4931777;28;20043;-75
2024/01/23 04:52:37;;;;;;;19.42;2.50;;;;;;;5.39;100.00;101156.59;4917289;29;20070;-75
2024/01/23 04:55:04;;;;;;;15.07;2.25;;;;;;;5.40;100.00;101160.88;4933564;28;20087;-76
2024/01/23 04:57:31;;;;;;;16.25;2.30;;;;;;;5.38;100.00;101155.78;4928910;28;20035;-77
2024/01/23 04:59:58;;;;;;;12.68;2.75;;;;;;;5.42;100.00;101170.25;4940420;28;20773;-77
2024/01/23 05:02:24;;;;;;;19.52;3.50;;;;;;;5.43;100.00;101176.38;4949926;28;20035;-74
2024/01/23 05:04:50;;;;;;;15.77;2.40;;;;;;;5.47;100.00;101185.50;4930229;28;20099;-74
2024/01/23 05:07:16;;;;;;;19.42;3.15;;;;;;;5.48;100.00;101182.59;4940903;28;20568;-73
2024/01/23 05:09:42;;;;;;;17.55;3.17;;;;;;;5.50;100.00;101185.06;4911754;29;20054;-73
2024/01/23 05:12:08;;;;;;;15.70;2.88;;;;;;;5.51;100.00;101192.00;4932959;28;20098;-75
2024/01/23 05:14:34;;;;;;;14.35;2.28;;;;;;;5.48;100.00;101187.91;4945749;28;20490;-74
2024/01/23 05:17:00;;;;;;;15.98;2.65;;;;;;;5.45;100.00;101198.19;4932912;28;20050;-75
2024/01/23 05:19:25;;;;;;;18.70;2.72;;;;;;;5.40;100.00;101211.34;4916038;28;20101;-74
2024/01/23 05:21:51;;;;;;;11.75;2.45;;;;;;;5.39;100.00;101209.72;4917973;29;20036;-75
2024/01/23 05:24:17;;;;;;;16.90;2.97;;;;;;;5.34;100.00;101210.38;4934468;28;20047;-74
2024/01/23 05:26:43;;;;;;;15.40;2.90;;;;;;;5.31;100.00;101212.69;4900296;29;20047;-76
2024/01/23 05:29:08;;;;;;;16.42;2.60;;;;;;;5.30;100.00;101211.06;4938504;28;20130;-74
2024/01/23 05:31:34;;;;;;;15.77;2.53;;;;;;;5.27;100.00;101211.50;4935967;28;20089;-74
2024/01/23 05:34:00;;;;;;;10.95;2.55;;;;;;;5.26;100.00;101217.84;4936194;28;20373;-73
2024/01/23 05:36:25;;;;;;;17.95;3.22;;;;;;;5.22;100.00;101229.97;4931843;28;20046;-74
2024/01/23 05:38:51;;;;;;;12.80;2.20;;;;;;;5.23;100.00;101221.75;4940338;28;20031;-77
2024/01/23 05:41:17;;;;;;;15.68;2.78;;;;;;;5.25;100.00;101229.50;4935667;28;20039;-73
2024/01/23 05:43:42;;;;;;;23.27;2.92;;;;;;;5.22;100.00;101229.97;4930018;29;20032;-75
2024/01/23 05:46:08;;;;;;;20.10;2.95;;;;;;;5.18;100.00;101224.25;4937868;28;20042;-74
2024/01/23 05:48:34;;;;;;;20.42;2.80;;;;;;;5.18;100.00;101225.06;4923367;29;20031;-74
2024/01/23 05:50:59;;;;;;;15.35;2.55;;;;;;;5.18;100.00;101234.88;4935403;28;20129;-78
2024/01/23 05:53:26;;;;;;;19.13;3.47;;;;;;;5.20;100.00;101238.94;4934628;28;20035;-75
2024/01/23 05:55:52;;;;;;;16.05;3.00;;;;;;;5.24;100.00;101257.91;4939164;28;20681;-74
2024/01/23 05:58:17;;;;;;;20.73;3.65;;;;;;;5.26;100.00;101263.00;4939815;28;20093;-77
2024/01/23 06:00:43;;;;;;;17.98;2.92;;;;;;;5.20;100.00;101270.81;4927846;29;20550;-76
2024/01/23 06:03:09;;;;;;;16.13;2.83;;;;;;;5.22;100.00;101275.09;4927620;29;20400;-74
2024/01/23 06:05:34;;;;;;;18.67;2.80;;;;;;;5.20;100.00;101286.72;4935538;28;20042;-73
2024/01/23 06:08:00;;;;;;;22.98;3.17;;;;;;;5.20;100.00;101270.81;4932681;28;20055;-78
2024/01/23 06:10:26;;;;;;;24.05;3.38;;;;;;;5.17;100.00;101276.56;4913911;28;20044;-77
2024/01/23 06:12:52;;;;;;;21.65;2.53;;;;;;;5.17;100.00;101289.03;4922310;29;20118;-78
2024/01/23 06:15:18;;;;;;;24.85;3.55;;;;;;;5.17;100.00;101283.72;4933038;28;20071;-74
2024/01/23 06:17:44;;;;;;;16.85;2.63;;;;;;;5.13;100.00;101287.84;4930317;28;20815;-74
2024/01/23 06:20:12;;;;;;;19.27;3.03;;;;;;;5.10;100.00;101291.75;4934376;28;20505;-74
2024/01/23 06:22:39;;;;;;;17.73;2.92;;;;;;;5.13;100.00;101291.31;4930688;28;20030;-73
2024/01/23 06:25:15;;;;;;;23.00;3.67;;;;;;;5.15;100.00;101299.88;4935820;28;20044;-74
2024/01/23 06:27:44;;;;;;;20.50;2.63;;;;;;;5.16;100.00;101301.50;4948042;28;20039;-77
2024/01/23 06:30:11;;;;;;;21.90;3.17;;;;;;;5.17;100.00;101307.63;4936993;28;20027;-74
2024/01/23 06:32:37;;;;;;;21.67;3.25;;;;;;;5.17;100.00;101312.94;4931051;28;20121;-74
2024/01/23 06:35:04;;;;;;;20.92;2.60;;;;;;;5.18;100.00;101312.69;4932327;28;20040;-74
2024/01/23 06:37:30;;;;;;;19.63;3.35;;;;;;;5.18;100.00;101311.88;4939006;28;20042;-74
2024/01/23 06:39:56;;;;;;;22.48;3.28;;;;;;;5.22;100.00;101314.94;4940662;28;20039;-75
2024/01/23 06:42:21;;;;;;;21.20;3.42;;;;;;;5.22;100.00;101326.38;4914669;28;20197;-74
2024/01/23 06:44:47;;;;;;;17.35;2.70;;;;;;;5.23;100.00;101321.88;4941744;28;20044;-74
2024/01/23 06:47:13;;;;;;;21.95;3.50;;;;;;;5.28;100.00;101329.97;4941932;28;20845;-74
2024/01/23 06:49:39;;;;;;;21.80;3.53;;;;;;;5.30;100.00;101349.16;4921329;29;20046;-78
2024/01/23 06:52:04;;;;;;;21.60;3.08;;;;;;;5.29;100.00;101343.03;4912779;29;20046;-75
2024/01/23 06:54:31;;;;;;;21.95;3.53;;;;;;;5.32;100.00;101352.41;4931284;28;20054;-77
2024/01/23 06:56:59;;;;;;;25.13;4.10;;;;;;;5.37;100.00;101360.53;4946892;28;20038;-74
2024/01/23 06:59:25;;;;;;;20.42;3.85;;;;;;;5.38;100.00;101375.44;4936697;28;20047;-75
2024/01/23 07:01:50;;;;;;;18.00;2.75;;;;;;;5.41;100.00;101377.63;4932255;29;20035;-77
2024/01/23 07:04:16;;;;;;;26.13;4.43;;;;;;;5.44;100.00;101382.53;4942639;28;20559;-73
2024/01/23 07:06:43;;;;;;;26.40;3.70;;;;;;;5.46;100.00;101394.56;4913824;29;20390;-76
2024/01/23 07:09:08;;;;;;;22.45;3.67;;;;;;;5.44;100.00;101393.97;4925109;29;20523;-73
2024/01/23 07:11:34;;;;;;;23.25;3.30;;;;;;;5.47;100.00;101387.38;4928061;28;20070;-75
2024/01/23 07:13:59;;;;;;;20.23;3.40;;;;;;;5.52;100.00;101400.03;4928136;29;20138;-73
2024/01/23 07:16:25;;;;;;;16.52;3.20;;;;;;;5.55;100.00;101405.69;4942145;28;20138;-74
2024/01/23 07:18:51;;;;;;;21.83;3.00;;;;;;;5.55;100.00;101411.00;4941265;28;20034;-76
2024/01/23 07:21:16;;;;;;;23.98;3.63;;;;;;;5.56;100.00;101422.47;4939227;28;20031;-76
2024/01/23 07:23:42;;;;;;;22.65;3.78;;;;;;;5.53;100.00;101422.91;4935941;28;20138;-76
2024/01/23 07:26:07;;;;;;;21.70;3.17;;;;;;;5.58;100.00;101442.47;4926132;29;20064;-76
2024/01/23 07:28:33;;;;;;;27.67;4.80;;;;;;;5.59;100.00;101448.59;4929492;28;20823;-76
2024/01/23 07:30:59;;;;;;;25.25;3.60;;;;;;;5.65;100.00;101464.47;4940924;28;20066;-76
2024/01/23 07:33:24;;;;;;;24.75;3.80;;;;;;;5.69;100.00;101471.00;4942623;28;20114;-76
2024/01/23 07:35:50;;;;;;;19.10;2.50;;;;;;;5.69;100.00;101470.16;4927754;29;20059;-76
2024/01/23 07:38:19;;;;;;;19.52;2.97;;;;;;;5.67;100.00;101473.03;4943451;28;20051;-75
2024/01/23 07:40:45;;;;;;;21.33;3.47;;;;;;;5.68;100.00;101479.16;4935975;28;20505;-75
2024/01/23 07:43:10;;;;;;;20.02;3.72;;;;;;;5.72;100.00;101480.34;4917764;29;20028;-76
2024/01/23 07:45:37;;;;;;;17.65;3.38;;;;;;;5.72;100.00;101494.47;4942999;28;20094;-77
2024/01/23 07:48:02;;;;;;;;;;;;;;;5.72;100.00;101502.44;4945176;28;20039;-77
2024/01/23 07:50:28;;;;;;;23.67;4.40;;;;;;;5.74;100.00;101508.34;4941635;28;19961;-75
2024/01/23 07:52:58;;;;;;;18.77;3.15;;;;;;;5.78;100.00;101513.22;4948563;28;20048;-77
2024/01/23 07:55:24;;;;;;;21.63;3.78;;;;;;;5.80;100.00;101513.81;4945040;28;20039;-75
2024/01/23 07:57:50;;;;;;;26.20;3.08;;;;;;;5.82;100.00;101525.03;4940067;28;20038;-76
2024/01/23 08:00:18;;;;;;;25.98;3.45;;;;;;;5.81;100.00;101521.56;4937600;28;20031;-76
2024/01/23 08:02:44;;;;;;;20.83;3.53;;;;;;;5.81;100.00;101536.69;4929746;29;20028;-77
2024/01/23 08:05:11;;;;;;;22.60;3.20;;;;;;;5.81;100.00;101537.50;4936532;28;20043;-76
2024/01/23 08:07:38;;;;;;;24.67;3.83;;;;;;;5.81;100.00;101544.69;4921745;29;20501;-76
2024/01/23 08:10:05;;;;;;;24.70;3.05;;;;;;;5.80;100.00;101556.34;4945485;28;20039;-77
2024/01/23 08:12:30;;;;;;;23.08;3.30;;;;;;;5.84;100.00;101565.53;4937382;28;20039;-77
2024/01/23 08:14:56;;;;;;;21.00;3.38;;;;;;;5.87;100.00;101573.06;4929826;29;20043;-75
2024/01/23 08:17:22;;;;;;;23.92;3.40;;;;;;;5.87;100.00;101567.72;4934845;28;20166;-76
2024/01/23 08:19:47;;;;;;;21.88;3.05;;;;;;;5.86;100.00;101580.22;4936182;28;20118;-76
2024/01/23 08:22:13;;;;;;;24.15;3.35;;;;;;;5.89;100.00;101597.56;4939792;28;20799;-77
2024/01/23 08:24:40;;;;;;;24.20;3.40;;;;;;;5.89;100.00;101598.41;4943141;28;20035;-77
2024/01/23 08:27:06;;;;;;;25.92;4.25;;;;;;;5.89;100.00;101608.19;4943723;28;20034;-76
2024/01/23 08:29:31;;;;;;;25.00;4.25;;;;;;;5.93;100.00;101617.41;4941446;28;20039;-76
2024/01/23 08:31:57;;;;;;;28.65;3.50;;;;;;;5.96;100.00;101615.16;4940952;28;20036;-76
2024/01/23 08:34:23;;;;;;;17.80;2.95;;;;;;;5.99;100.00;101624.53;4929111;28;20808;-75
2024/01/23 08:36:49;;;;;;;28.23;4.13;;;;;;;6.00;100.00;101618.16;4943463;28;20043;-76
2024/01/23 08:39:15;;;;;;;30.58;3.75;;;;;;;6.05;100.00;101634.28;4928048;29;20035;-75
2024/01/23 08:41:41;;;;;;;21.77;3.55;;;;;;;6.09;100.00;101635.47;4920835;29;20472;-76
2024/01/23 08:44:07;;;;;;;29.52;3.70;;;;;;;6.07;100.00;101648.16;4938974;28;20023;-76
2024/01/23 08:46:33;;;;;;;28.02;3.65;;;;;;;6.11;100.00;101660.00;4937641;28;20040;-76
2024/01/23 08:48:59;;;;;;;27.27;3.70;;;;;;;6.12;100.00;101661.63;4936927;28;20031;-75
2024/01/23 08:51:26;;;;;;;;;;;;;;;6.13;100.00;101663.25;4954323;28;20413;-75
2024/01/23 08:53:52;;;;;;;19.17;3.35;;;;;;;6.11;100.00;101672.50;4926650;29;19964;-75
2024/01/23 08:56:21;;;;;;;25.27;4.07;;;;;;;6.11;100.00;101683.13;4923707;29;20134;-75
2024/01/23 08:58:47;;;;;;;24.20;3.25;;;;;;;6.10;100.00;101686.84;4922565;28;20035;-75
2024/01/23 09:01:13;;;;;;;28.02;3.63;;;;;;;6.14;100.00;101680.03;4937338;28;20090;-77
2024/01/23 09:03:39;;;;;;;26.58;4.05;;;;;;;6.17;100.00;101698.22;4938808;28;20031;-77
2024/01/23 09:06:05;;;;;;;23.85;4.35;;;;;;;6.17;100.00;101701.72;4919933;29;20071;-76
2024/01/23 09:08:30;;;;;;;24.85;4.30;;;;;;;6.20;100.00;101708.44;4932313;28;20040;-76
2024/01/23 09:10:57;;;;;;;17.15;3.22;;;;;;;6.19;100.00;101712.94;4930974;28;20572;-76
2024/01/23 09:13:22;;;;;;;25.52;3.88;;;;;;;6.18;100.00;101713.97;4931667;28;20031;-76
2024/01/23 09:15:48;;;;;;;25.02;4.07;;;;;;;6.19;100.00;101712.94;4940769;28;20043;-76
2024/01/23 09:18:14;;;;;;;25.65;3.72;;;;;;;6.21;100.00;101718.84;4925323;28;20117;-76
2024/01/23 09:20:40;;;;;;;25.75;4.68;;;;;;;6.23;100.00;101722.13;4956833;28;20035;-76
2024/01/23 09:23:06;;;;;;;27.23;4.10;;;;;;;6.32;100.00;101719.19;4933145;28;20050;-76
2024/01/23 09:25:31;;;;;;;29.80;4.28;;;;;;;6.37;100.00;101728.16;4937117;28;20050;-76
2024/01/23 09:27:57;;;;;;;28.50;3.97;;;;;;;6.40;100.00;101733.03;4942872;28;20035;-76
2024/01/23 09:30:23;;;;;;;33.20;5.03;;;;;;;6.40;100.00;101737.53;4926540;29;20039;-77
2024/01/23 09:32:48;;;;;;;35.83;4.45;;;;;;;6.45;100.00;101743.03;4934865;28;20043;-76
2024/01/23 09:35:14;;;;;;;22.77;3.22;;;;;;;6.45;100.00;101756.34;4927728;29;20059;-75
2024/01/23 09:37:39;;;;;;;25.67;3.78;;;;;;;6.46;100.00;101764.09;4942179;28;20043;-76
2024/01/23 09:40:08;;;;;;;30.20;4.03;;;;;;;6.45;100.00;101756.34;4930940;28;20047;-75
2024/01/23 09:42:40;;;;;;;26.83;4.57;;;;;;;6.47;100.00;101770.22;4919964;28;20057;-75
2024/01/23 09:45:15;;;;;;;35.80;4.60;;;;;;;6.51;100.00;101774.09;4933732;28;20200;-76
2024/01/23 09:47:42;;;;;;;26.30;4.57;;;;;;;6.51;100.00;101790.88;4937144;28;20093;-75
2024/01/23 09:50:12;;;;;;;21.60;3.33;;;;;;;6.57;100.00;101799.84;4927358;29;20042;-77
2024/01/23 09:52:43;;;;;;;29.85;4.85;;;;;;;6.59;100.00;101803.09;4920466;28;20058;-75
2024/01/23 09:55:09;;;;;;;27.25;3.92;;;;;;;6.63;100.00;101814.09;4918768;29;20044;-75
2024/01/23 09:57:35;;;;;;;30.88;5.55;;;;;;;6.66;100.00;101806.50;4939855;28;20050;-76
2024/01/23 10:00:01;;;;;;;26.77;4.30;;;;;;;6.67;100.00;101802.81;4934613;28;20043;-75
2024/01/23 10:02:28;;;;;;;25.98;3.92;;;;;;;6.71;100.00;101796.03;4934871;28;20102;-78
2024/01/23 10:04:54;;;;;;;26.92;3.95;;;;;;;6.68;100.00;101820.41;4937353;28;20039;-77
2024/01/23 10:07:20;;;;;;;26.25;3.60;;;;;;;6.71;100.00;101819.19;4939299;28;20516;-74
2024/01/23 10:09:49;;;;;;;26.75;3.60;;;;;;;6.74;100.00;101824.06;4937797;28;20118;-75
2024/01/23 10:12:15;;;;;;;24.95;4.13;;;;;;;6.83;100.00;101828.88;4942633;28;20050;-77
2024/01/23 10:14:44;;;;;;;28.02;3.95;;;;;;;6.88;100.00;101830.09;4925108;28;20035;-78
2024/01/23 10:17:10;;;;;;;29.73;3.55;;;;;;;6.89;100.00;101837.03;4940464;28;20082;-77
2024/01/23 10:19:37;;;;;;;24.15;4.15;;;;;;;6.91;100.00;101840.28;4921949;28;20512;-77
2024/01/23 10:22:03;;;;;;;35.47;4.55;;;;;;;6.90;100.00;101838.66;4923783;29;20465;-77
2024/01/23 10:24:29;;;;;;;29.80;5.00;;;;;;;6.84;100.00;101851.00;4918215;28;20141;-77
2024/01/23 10:26:55;;;;;;;20.38;3.47;;;;;;;6.84;100.00;101835.88;4922995;28;20126;-77
2024/01/23 10:29:22;;;;;;;24.60;4.35;;;;;;;6.83;100.00;101858.16;4923047;29;20393;-77
2024/01/23 10:31:48;;;;;;;23.52;3.45;;;;;;;6.90;100.00;101865.28;4957353;28;20046;-77
2024/01/23 10:34:14;;;;;;;24.45;3.25;;;;;;;6.95;100.00;101855.63;4939758;28;20401;-77
2024/01/23 10:36:42;;;;;;;29.77;3.95;;;;;;;7.02;100.00;101863.56;4936288;28;20409;-76
2024/01/23 10:39:10;;;;;;;26.33;3.90;;;;;;;7.06;100.00;101859.44;4939018;28;20035;-76
2024/01/23 10:41:36;;;;;;;31.05;4.50;;;;;;;7.10;100.00;101855.28;4920621;28;20498;-76
2024/01/23 10:44:03;;;;;;;25.35;3.78;;;;;;;7.09;100.00;101870.44;4915074;29;20035;-76
2024/01/23 10:46:30;;;;;;;27.48;4.15;;;;;;;7.06;100.00;101876.22;4934463;28;20044;-75
2024/01/23 10:48:56;;;;;;;22.88;4.20;;;;;;;7.03;100.00;101881.97;4934953;28;20039;-75
2024/01/23 10:51:28;;;;;;;25.30;4.63;;;;;;;7.00;100.00;101881.63;4924705;29;20043;-77
2024/01/23 10:53:57;;;;;;;;;;;;;;;6.97;100.00;101890.03;4938455;28;20477;-76
2024/01/23 10:56:24;;;;;;;35.63;4.88;;;;;;;6.94;100.00;101895.78;4942351;28;19927;-76
2024/01/23 10:59:00;;;;;;;28.75;4.35;;;;;;;6.97;100.00;101892.69;4936302;28;20058;-76
2024/01/23 11:01:33;;;;;;;24.77;3.65;;;;;;;6.97;100.00;101903.34;4928637;29;20050;-76
2024/01/23 11:04:00;;;;;;;27.33;4.03;;;;;;;6.96;100.00;101893.72;4934252;28;20028;-77
2024/01/23 11:06:32;;;;;;;27.23;4.93;;;;;;;6.97;100.00;101898.00;4938083;28;20044;-77
2024/01/23 11:09:11;;;;;;;24.60;3.55;;;;;;;6.94;100.00;101903.78;4924162;29;20118;-76
2024/01/23 11:11:55;;;;;;;29.25;3.75;;;;;;;6.89;100.00;101907.09;4932430;28;20378;-76
2024/01/23 11:14:30;;;;;;;27.17;4.55;;;;;;;6.88;100.00;101900.13;4938490;28;20039;-76
2024/01/23 11:17:05;;;;;;;27.25;4.13;;;;;;;6.84;100.00;101907.75;4943379;28;20719;-75